Time;durP1;ratioP1;P1;durP2;ratioP2;P2;SDS_P1;SDS_P2;PMS_P1;PMS_P2;Temp;Humidity;BMP_temperature;BMP_pressure;BME280_temperature;BME280_humidity;BME280_pressure;Samples;Min_cycle;Max_cycle;Signal;HPM_P1;HPM_P2
2021/07/25 00:01:43;;;;;;;4.53;2.47;;;23.60;99.00;;;;;;5113564;28;20077;-76
2021/07/25 00:04:09;;;;;;;5.05;3.05;;;23.60;99.00;;;;;;5113507;28;20208;-76
2021/07/25 00:06:35;;;;;;;5.47;3.13;;;23.60;99.00;;;;;;5113855;28;20046;-76
2021/07/25 00:09:01;;;;;;;4.38;2.88;;;23.60;99.20;;;;;;5113671;28;20051;-77
2021/07/25 00:11:27;;;;;;;4.45;2.85;;;23.60;99.30;;;;;;5113786;28;20452;-76
2021/07/25 00:13:54;;;;;;;4.10;2.45;;;23.60;99.30;;;;;;5113340;28;20409;-77
2021/07/25 00:16:20;;;;;;;5.32;3.38;;;23.60;99.50;;;;;;5094948;28;20027;-77
2021/07/25 00:18:46;;;;;;;4.45;2.90;;;23.60;99.70;;;;;;5113592;28;20024;-76
2021/07/25 00:21:12;;;;;;;4.28;2.67;;;23.70;99.80;;;;;;5113291;28;20028;-76
2021/07/25 00:23:42;;;;;;;4.07;2.80;;;23.60;99.80;;;;;;5113428;28;20094;-77
2021/07/25 00:26:12;;;;;;;4.28;2.78;;;23.60;99.90;;;;;;5112761;28;20084;-76
2021/07/25 00:28:38;;;;;;;4.68;2.80;;;23.60;99.90;;;;;;5113428;28;20510;-77
2021/07/25 00:31:05;;;;;;;8.50;2.83;;;23.60;99.90;;;;;;5112862;28;20020;-76
2021/07/25 00:33:32;;;;;;;4.57;3.08;;;23.60;99.90;;;;;;5112831;28;20036;-76
2021/07/25 00:36:00;;;;;;;4.45;2.67;;;23.60;99.80;;;;;;5112972;28;20030;-77
2021/07/25 00:38:26;;;;;;;3.83;2.78;;;23.60;99.80;;;;;;5113046;28;20020;-77
2021/07/25 00:40:57;;;;;;;5.30;2.90;;;23.60;99.70;;;;;;5112692;28;20061;-77
2021/07/25 00:43:28;;;;;;;3.85;2.60;;;23.60;99.70;;;;;;5112829;28;20065;-77
2021/07/25 00:45:57;;;;;;;4.03;2.10;;;23.60;99.70;;;;;;5112428;28;20035;-76
2021/07/25 00:48:24;;;;;;;4.72;2.85;;;23.60;99.70;;;;;;5094441;28;20016;-76
2021/07/25 00:50:50;;;;;;;4.38;2.70;;;23.60;99.70;;;;;;5112609;28;20019;-77
2021/07/25 00:53:17;;;;;;;4.60;2.67;;;23.60;99.60;;;;;;5113143;28;20093;-76
2021/07/25 00:55:45;;;;;;;4.57;2.80;;;23.60;99.60;;;;;;5112564;28;20475;-76
2021/07/25 00:58:10;;;;;;;4.53;2.80;;;23.60;99.50;;;;;;5093901;28;20024;-77
2021/07/25 01:00:36;;;;;;;4.10;2.55;;;23.60;99.60;;;;;;5112167;28;20445;-77
2021/07/25 01:03:13;;;;;;;4.35;2.60;;;23.50;99.50;;;;;;5112382;28;20019;-77
2021/07/25 01:06:03;;;;;;;4.28;2.80;;;23.50;99.50;;;;;;5094030;28;20423;-77
2021/07/25 01:08:55;;;;;;;4.13;2.85;;;23.50;99.40;;;;;;5112269;28;20513;-77
2021/07/25 01:11:32;;;;;;;3.63;2.45;;;23.50;99.40;;;;;;5112618;28;20081;-77
2021/07/25 01:14:01;;;;;;;4.60;2.67;;;23.50;99.40;;;;;;5112137;28;20035;-77
2021/07/25 01:16:27;;;;;;;4.60;3.15;;;23.50;99.40;;;;;;5112484;28;20023;-77
2021/07/25 01:18:52;;;;;;;5.10;2.80;;;23.50;99.40;;;;;;5111968;28;20032;-77
2021/07/25 01:21:19;;;;;;;4.72;2.70;;;23.50;99.30;;;;;;5112564;28;20020;-77
2021/07/25 01:23:49;;;;;;;4.25;2.75;;;23.50;99.30;;;;;;5112579;28;20050;-76
2021/07/25 01:26:20;;;;;;;3.53;2.70;;;23.50;99.20;;;;;;5112300;28;20442;-76
2021/07/25 01:28:49;;;;;;;4.95;2.92;;;23.50;99.20;;;;;;5112464;28;20027;-76
2021/07/25 01:31:19;;;;;;;3.67;2.58;;;23.50;99.10;;;;;;5112197;28;20114;-76
2021/07/25 01:33:48;;;;;;;3.72;2.53;;;23.50;99.20;;;;;;5112360;28;20054;-77
2021/07/25 01:36:15;;;;;;;4.20;2.75;;;23.50;99.10;;;;;;5111804;28;20387;-77
2021/07/25 01:38:41;;;;;;;4.13;2.65;;;23.50;99.10;;;;;;5112046;28;20513;-77
2021/07/25 01:41:11;;;;;;;4.07;2.33;;;23.50;99.10;;;;;;5111821;28;20023;-76
2021/07/25 01:43:39;;;;;;;5.00;2.60;;;23.50;99.00;;;;;;5111829;28;20028;-77
2021/07/25 01:46:05;;;;;;;5.03;2.95;;;23.50;99.00;;;;;;5093370;28;20032;-76
2021/07/25 01:48:32;;;;;;;4.25;2.92;;;23.50;99.00;;;;;;5110882;28;20027;-76
2021/07/25 01:50:57;;;;;;;4.93;2.10;;;23.40;99.00;;;;;;5111501;28;20064;-76
2021/07/25 01:53:23;;;;;;;3.55;2.47;;;23.50;98.90;;;;;;5093158;28;20040;-76
2021/07/25 01:55:49;;;;;;;4.15;2.53;;;23.50;98.90;;;;;;5112106;28;20099;-76
2021/07/25 01:58:14;;;;;;;4.10;2.70;;;23.40;98.90;;;;;;5111223;28;20032;-76
2021/07/25 02:00:40;;;;;;;3.95;2.13;;;23.40;98.90;;;;;;5111001;28;20069;-77
2021/07/25 02:03:06;;;;;;;4.43;2.72;;;23.50;98.90;;;;;;5111263;28;20031;-76
2021/07/25 02:05:35;;;;;;;3.70;2.50;;;23.40;98.80;;;;;;5111651;28;20026;-76
2021/07/25 02:08:01;;;;;;;3.70;2.40;;;23.40;98.70;;;;;;5111303;28;20027;-76
2021/07/25 02:10:26;;;;;;;3.38;2.20;;;23.40;98.70;;;;;;5111626;28;20102;-76
2021/07/25 02:12:52;;;;;;;4.38;2.40;;;23.40;98.70;;;;;;5111074;28;20028;-76
2021/07/25 02:15:18;;;;;;;5.18;2.85;;;23.40;98.60;;;;;;5111823;28;20019;-76
2021/07/25 02:17:43;;;;;;;3.45;2.40;;;23.40;98.60;;;;;;5111487;28;20511;-76
2021/07/25 02:20:10;;;;;;;4.20;2.10;;;23.40;98.60;;;;;;5111303;28;20514;-76
2021/07/25 02:22:35;;;;;;;3.25;2.13;;;23.40;98.60;;;;;;5111325;28;20098;-76
2021/07/25 02:25:01;;;;;;;3.15;2.17;;;23.40;98.50;;;;;;5111204;28;20112;-76
2021/07/25 02:27:26;;;;;;;3.00;2.13;;;23.40;98.50;;;;;;5111342;28;20063;-76
2021/07/25 02:29:52;;;;;;;3.97;2.60;;;23.30;98.50;;;;;;5111415;28;20024;-76
2021/07/25 02:32:18;;;;;;;5.95;2.40;;;23.40;98.50;;;;;;5111738;28;20039;-77
2021/07/25 02:34:43;;;;;;;3.20;2.22;;;23.40;98.40;;;;;;5111446;28;20488;-77
2021/07/25 02:37:14;;;;;;;5.93;2.42;;;23.30;98.40;;;;;;5110928;28;20024;-77
2021/07/25 02:39:39;;;;;;;3.28;2.22;;;23.30;98.40;;;;;;5093512;28;20118;-77
2021/07/25 02:42:05;;;;;;;4.93;2.20;;;23.30;98.40;;;;;;5111321;28;20586;-77
2021/07/25 02:44:31;;;;;;;3.60;1.65;;;23.30;98.40;;;;;;5111398;28;20153;-76
2021/07/25 02:46:57;;;;;;;3.95;2.08;;;23.30;98.30;;;;;;5111400;28;20019;-77
2021/07/25 02:49:23;;;;;;;3.67;1.95;;;23.40;98.30;;;;;;5111247;28;20027;-76
2021/07/25 02:51:48;;;;;;;6.18;2.97;;;23.30;98.30;;;;;;5111390;28;20032;-76
2021/07/25 02:54:14;;;;;;;3.65;2.00;;;23.30;98.30;;;;;;5110760;28;20035;-76
2021/07/25 02:56:39;;;;;;;4.93;2.35;;;23.30;98.20;;;;;;5111021;28;20099;-76
2021/07/25 02:59:05;;;;;;;3.20;1.90;;;23.30;98.20;;;;;;5110986;28;20055;-75
2021/07/25 03:01:31;;;;;;;4.90;1.98;;;23.30;98.20;;;;;;5110954;28;20059;-76
2021/07/25 03:03:57;;;;;;;3.97;2.38;;;23.30;98.10;;;;;;5110880;28;20030;-76
2021/07/25 03:06:22;;;;;;;4.05;2.03;;;23.30;98.10;;;;;;5111027;28;20024;-76
2021/07/25 03:08:48;;;;;;;4.93;2.45;;;23.30;98.10;;;;;;5111296;28;20020;-76
2021/07/25 03:11:14;;;;;;;3.20;2.00;;;23.30;98.00;;;;;;5111020;28;20488;-76
2021/07/25 03:13:40;;;;;;;5.10;2.50;;;23.30;98.00;;;;;;5096058;28;20510;-76
2021/07/25 03:16:08;;;;;;;3.95;2.20;;;23.30;98.00;;;;;;5114350;28;20020;-76
2021/07/25 03:18:35;;;;;;;3.90;2.35;;;23.30;98.00;;;;;;5114749;28;20030;-76
2021/07/25 03:21:02;;;;;;;3.17;2.00;;;23.20;98.00;;;;;;5095970;28;20033;-76
2021/07/25 03:23:28;;;;;;;4.40;2.58;;;23.20;97.90;;;;;;5114803;28;20023;-75
2021/07/25 03:25:54;;;;;;;4.32;2.50;;;23.20;97.90;;;;;;5114092;28;20022;-77
2021/07/25 03:28:21;;;;;;;5.03;2.50;;;23.30;98.00;;;;;;5114542;28;20114;-76
2021/07/25 03:30:47;;;;;;;5.40;2.33;;;23.20;97.90;;;;;;5096057;28;20019;-76
2021/07/25 03:33:13;;;;;;;4.18;2.15;;;23.20;97.80;;;;;;5113838;28;20153;-76
2021/07/25 03:35:39;;;;;;;3.67;2.20;;;23.20;97.80;;;;;;5114410;28;20106;-76
2021/07/25 03:38:05;;;;;;;3.90;2.10;;;23.20;97.80;;;;;;5113628;28;20035;-76
2021/07/25 03:40:32;;;;;;;5.45;2.13;;;23.20;97.80;;;;;;5114123;28;20031;-76
2021/07/25 03:42:57;;;;;;;6.65;2.30;;;23.20;97.80;;;;;;5113873;28;20437;-77
2021/07/25 03:45:23;;;;;;;4.20;1.85;;;23.20;97.80;;;;;;5114068;28;20027;-76
2021/07/25 03:47:49;;;;;;;4.78;2.15;;;23.20;97.80;;;;;;5095942;28;20023;-76
2021/07/25 03:50:15;;;;;;;4.07;2.00;;;23.20;97.80;;;;;;5113955;28;20028;-76
2021/07/25 03:52:41;;;;;;;2.78;1.70;;;23.20;97.80;;;;;;5095721;28;20024;-76
2021/07/25 03:55:08;;;;;;;4.05;2.10;;;23.20;97.70;;;;;;5094984;28;20032;-76
2021/07/25 03:57:34;;;;;;;3.20;2.15;;;23.20;97.70;;;;;;5113635;28;20016;-77
2021/07/25 04:00:01;;;;;;;3.47;2.45;;;23.20;97.70;;;;;;5095512;28;20498;-76
2021/07/25 04:02:27;;;;;;;3.22;2.25;;;23.20;97.70;;;;;;5113731;28;20102;-76
2021/07/25 04:04:53;;;;;;;2.72;2.00;;;23.20;97.60;;;;;;5113713;28;20464;-76
2021/07/25 04:07:18;;;;;;;3.70;1.98;;;23.20;97.60;;;;;;5095683;28;20028;-76
2021/07/25 04:09:44;;;;;;;5.03;2.10;;;23.20;97.60;;;;;;5113485;28;20391;-76
2021/07/25 04:12:10;;;;;;;3.15;1.73;;;23.20;97.60;;;;;;5113215;28;20115;-76
2021/07/25 04:14:36;;;;;;;3.88;2.25;;;23.20;97.60;;;;;;5113639;28;20073;-76
2021/07/25 04:17:02;;;;;;;4.00;2.10;;;23.20;97.60;;;;;;5113238;28;20016;-76
2021/07/25 04:19:27;;;;;;;3.25;2.08;;;23.20;97.60;;;;;;5113110;28;20403;-76
2021/07/25 04:21:55;;;;;;;4.38;2.40;;;23.20;97.60;;;;;;5113291;28;20016;-76
2021/07/25 04:24:21;;;;;;;4.60;2.35;;;23.20;97.50;;;;;;5112966;28;20475;-76
2021/07/25 04:26:47;;;;;;;3.33;1.70;;;23.20;97.50;;;;;;5113302;28;20377;-76
2021/07/25 04:29:13;;;;;;;2.78;1.90;;;23.10;97.50;;;;;;5112636;28;20498;-77
2021/07/25 04:31:39;;;;;;;3.80;2.17;;;23.10;97.50;;;;;;5113195;28;20023;-76
2021/07/25 04:34:06;;;;;;;3.42;2.13;;;23.20;97.50;;;;;;5112786;28;20042;-76
2021/07/25 04:36:32;;;;;;;3.53;2.13;;;23.10;97.50;;;;;;5112953;28;20038;-76
2021/07/25 04:38:59;;;;;;;2.90;1.70;;;23.10;97.40;;;;;;5112927;28;20443;-77
2021/07/25 04:41:27;;;;;;;3.10;2.10;;;23.10;97.40;;;;;;5112860;28;20491;-76
2021/07/25 04:44:21;;;;;;;5.15;2.45;;;23.10;97.40;;;;;;5112797;28;20047;-76
2021/07/25 04:46:50;;;;;;;6.07;2.42;;;23.10;97.40;;;;;;5078272;28;20038;-76
2021/07/25 04:49:17;;;;;;;3.17;1.85;;;23.10;97.40;;;;;;5113196;28;20507;-77
2021/07/25 04:51:45;;;;;;;5.90;1.80;;;23.10;97.40;;;;;;5112919;28;20035;-76
2021/07/25 04:54:14;;;;;;;2.85;1.88;;;23.10;97.40;;;;;;5112652;28;20031;-76
2021/07/25 04:56:55;;;;;;;3.47;1.88;;;23.10;97.30;;;;;;5112926;28;20024;-77
2021/07/25 04:59:30;;;;;;;3.88;2.20;;;23.10;97.30;;;;;;5078224;28;20027;-76
2021/07/25 05:02:03;;;;;;;2.67;1.83;;;23.10;97.30;;;;;;5094766;28;20031;-76
2021/07/25 05:04:32;;;;;;;5.32;2.40;;;23.10;97.30;;;;;;5112674;28;20027;-76
2021/07/25 05:06:58;;;;;;;3.38;2.10;;;23.10;97.30;;;;;;5112209;28;20020;-76
2021/07/25 05:09:24;;;;;;;3.28;1.85;;;23.10;97.30;;;;;;5112470;28;20511;-76
2021/07/25 05:12:10;;;;;;;4.00;2.22;;;23.10;97.30;;;;;;5112208;28;20020;-77
2021/07/25 05:14:37;;;;;;;3.15;2.15;;;23.10;97.30;;;;;;5112389;28;20044;-76
2021/07/25 05:17:10;;;;;;;3.63;2.03;;;23.10;97.30;;;;;;5112058;28;20567;-76
2021/07/25 05:19:51;;;;;;;5.78;2.00;;;23.10;97.30;;;;;;5112306;28;20024;-76
2021/07/25 05:22:42;;;;;;;3.03;2.00;;;23.00;97.20;;;;;;5112538;28;20488;-76
2021/07/25 05:25:08;;;;;;;3.60;1.92;;;23.00;97.20;;;;;;5111850;28;20090;-76
2021/07/25 05:27:45;;;;;;;2.67;1.77;;;23.00;97.20;;;;;;5111926;28;20032;-76
2021/07/25 05:30:16;;;;;;;4.07;1.92;;;23.00;97.20;;;;;;5091583;28;20430;-76
2021/07/25 05:32:42;;;;;;;4.85;1.92;;;23.00;97.20;;;;;;5091497;28;20073;-76
2021/07/25 05:35:08;;;;;;;2.88;2.05;;;23.00;97.20;;;;;;5090643;28;20031;-76
2021/07/25 05:37:34;;;;;;;4.25;1.73;;;23.10;97.20;;;;;;5110908;28;20034;-76
2021/07/25 05:40:00;;;;;;;3.10;1.83;;;23.00;97.20;;;;;;5111386;28;20426;-76
2021/07/25 05:42:26;;;;;;;3.17;2.17;;;23.10;97.20;;;;;;5093862;28;20048;-76
2021/07/25 05:44:51;;;;;;;4.85;2.10;;;23.10;97.20;;;;;;5111634;28;20361;-76
2021/07/25 05:47:17;;;;;;;3.60;2.47;;;23.00;97.20;;;;;;5112214;28;20020;-76
2021/07/25 05:49:45;;;;;;;3.40;1.90;;;23.10;97.20;;;;;;5111323;28;20023;-76
2021/07/25 05:52:11;;;;;;;5.32;1.92;;;23.00;97.20;;;;;;5076051;28;20050;-76
2021/07/25 05:54:38;;;;;;;3.42;2.10;;;23.00;97.20;;;;;;5110807;28;20051;-76
2021/07/25 05:57:06;;;;;;;5.75;1.80;;;23.00;97.20;;;;;;5111419;28;20020;-76
2021/07/25 05:59:32;;;;;;;4.63;2.08;;;23.00;97.10;;;;;;5111812;28;20477;-76
2021/07/25 06:02:01;;;;;;;2.53;1.85;;;23.00;97.20;;;;;;5111429;28;20023;-77
2021/07/25 06:04:30;;;;;;;3.65;1.65;;;23.00;97.20;;;;;;5111258;28;20398;-76
2021/07/25 06:06:56;;;;;;;5.65;2.20;;;23.00;97.10;;;;;;5092660;28;20027;-76
2021/07/25 06:09:25;;;;;;;3.42;1.85;;;23.00;97.10;;;;;;5092987;28;20019;-76
2021/07/25 06:11:52;;;;;;;5.35;2.50;;;23.00;97.10;;;;;;5111424;28;20016;-76
2021/07/25 06:14:17;;;;;;;4.38;2.42;;;23.00;97.20;;;;;;5093244;28;20032;-76
2021/07/25 06:16:44;;;;;;;2.85;1.70;;;23.00;97.10;;;;;;5111323;28;20027;-76
2021/07/25 06:19:09;;;;;;;4.47;2.30;;;23.00;97.20;;;;;;5110944;28;20332;-76
2021/07/25 06:21:35;;;;;;;5.63;2.20;;;23.00;97.20;;;;;;5110588;28;20076;-76
2021/07/25 06:24:01;;;;;;;4.80;1.90;;;23.00;97.20;;;;;;5111297;28;20057;-76
2021/07/25 06:26:26;;;;;;;2.70;1.80;;;23.00;97.20;;;;;;5111257;28;20399;-76
2021/07/25 06:28:52;;;;;;;3.67;2.47;;;23.00;97.20;;;;;;5092941;28;20030;-76
2021/07/25 06:31:18;;;;;;;6.07;2.17;;;22.90;97.20;;;;;;5111529;28;20023;-76
2021/07/25 06:33:44;;;;;;;3.45;1.80;;;22.90;97.10;;;;;;5092904;28;20039;-76
2021/07/25 06:36:11;;;;;;;7.60;1.83;;;22.90;97.10;;;;;;5110739;28;20107;-76
2021/07/25 06:38:38;;;;;;;3.63;2.15;;;23.00;97.40;;;;;;5111457;28;20043;-76
2021/07/25 06:41:04;;;;;;;3.25;1.92;;;22.90;97.00;;;;;;5110494;28;20084;-76
2021/07/25 06:43:30;;;;;;;3.20;1.90;;;22.90;97.10;;;;;;5110968;28;20028;-75
2021/07/25 06:45:56;;;;;;;3.67;2.10;;;22.90;97.10;;;;;;5111739;28;20020;-76
2021/07/25 06:48:24;;;;;;;3.65;1.83;;;23.00;97.10;;;;;;5115278;28;20430;-76
2021/07/25 06:50:55;;;;;;;3.88;1.70;;;22.90;97.10;;;;;;5115002;28;20069;-76
2021/07/25 06:53:22;;;;;;;4.18;2.10;;;22.90;97.10;;;;;;5114388;28;20441;-76
2021/07/25 06:55:49;;;;;;;3.47;1.90;;;22.90;97.10;;;;;;5115107;28;20023;-76
2021/07/25 06:58:15;;;;;;;3.50;2.00;;;22.90;97.10;;;;;;5114700;28;20490;-76
2021/07/25 07:00:41;;;;;;;2.95;2.22;;;22.90;97.10;;;;;;5115127;28;20024;-76
2021/07/25 07:03:06;;;;;;;5.45;1.95;;;23.00;97.40;;;;;;5114672;28;20043;-76
2021/07/25 07:05:33;;;;;;;3.65;2.17;;;22.90;97.10;;;;;;5114952;28;20106;-75
2021/07/25 07:08:06;;;;;;;3.00;1.67;;;23.00;97.10;;;;;;5114620;28;20054;-76
2021/07/25 07:10:37;;;;;;;4.75;2.80;;;22.90;97.10;;;;;;5114209;28;20023;-75
2021/07/25 07:13:08;;;;;;;3.78;1.65;;;23.00;97.10;;;;;;5113879;28;20078;-75
2021/07/25 07:15:36;;;;;;;2.30;1.40;;;22.90;97.10;;;;;;5113926;28;20020;-81
2021/07/25 07:18:02;;;;;;;2.92;2.00;;;22.90;97.00;;;;;;5114348;28;20102;-77
2021/07/25 07:20:29;;;;;;;3.00;1.92;;;23.00;97.10;;;;;;5114680;28;20475;-76
2021/07/25 07:23:02;;;;;;;3.15;1.95;;;23.00;97.10;;;;;;5113645;28;20055;-77
2021/07/25 07:25:34;;;;;;;3.90;1.95;;;23.00;97.10;;;;;;5114332;28;20020;-77
2021/07/25 07:28:00;;;;;;;3.55;1.60;;;23.00;97.10;;;;;;5113331;28;20027;-76
2021/07/25 07:30:26;;;;;;;2.60;1.60;;;23.00;97.10;;;;;;5094550;28;20028;-76
2021/07/25 07:32:52;;;;;;;3.65;2.03;;;23.00;97.10;;;;;;5113979;28;20499;-76
2021/07/25 07:35:26;;;;;;;4.10;2.03;;;23.00;97.10;;;;;;5113509;28;20062;-75
2021/07/25 07:37:52;;;;;;;2.57;1.73;;;23.00;97.20;;;;;;5113784;28;20535;-76
2021/07/25 07:40:19;;;;;;;3.85;2.00;;;23.10;97.40;;;;;;5114745;28;20027;-75
2021/07/25 07:42:44;;;;;;;4.20;2.10;;;23.10;97.50;;;;;;5113920;28;20030;-74
2021/07/25 07:45:10;;;;;;;5.63;2.30;;;23.10;97.50;;;;;;5109967;28;20399;-75
2021/07/25 07:47:36;;;;;;;5.60;2.17;;;23.10;97.60;;;;;;5112877;28;20093;-75
2021/07/25 07:50:02;;;;;;;4.68;3.20;;;23.10;97.70;;;;;;5113232;28;20485;-75
2021/07/25 07:52:27;;;;;;;4.15;2.63;;;23.20;97.90;;;;;;5095121;28;20531;-75
2021/07/25 07:54:53;;;;;;;6.05;3.50;;;23.20;98.00;;;;;;5113050;28;20491;-75
2021/07/25 07:57:19;;;;;;;9.73;3.03;;;23.20;98.20;;;;;;5112782;28;20024;-76
2021/07/25 07:59:45;;;;;;;7.35;5.32;;;23.20;98.10;;;;;;5112563;28;20027;-76
2021/07/25 08:02:10;;;;;;;7.40;3.92;;;23.30;98.30;;;;;;5116274;27;20449;-76
2021/07/25 08:04:36;;;;;;;11.77;6.07;;;23.20;98.30;;;;;;5113716;28;20027;-76
2021/07/25 08:07:02;;;;;;;31.42;9.13;;;23.30;98.30;;;;;;5113202;28;20020;-77
2021/07/25 08:09:28;;;;;;;25.45;8.05;;;23.30;98.60;;;;;;5113760;28;20080;-76
2021/07/25 08:11:53;;;;;;;26.30;8.35;;;23.30;98.50;;;;;;5113438;28;20020;-75
2021/07/25 08:14:20;;;;;;;30.02;9.25;;;23.30;98.60;;;;;;5095666;28;20047;-76
2021/07/25 08:16:47;;;;;;;25.83;9.98;;;23.30;98.70;;;;;;5114006;27;20024;-76
2021/07/25 08:19:14;;;;;;;42.03;11.80;;;23.30;98.80;;;;;;5112976;28;20023;-76
2021/07/25 08:21:40;;;;;;;32.10;9.52;;;23.30;99.00;;;;;;5120470;27;20620;-77
2021/07/25 08:24:06;;;;;;;29.17;8.85;;;23.30;99.20;;;;;;5133568;27;20031;-76
2021/07/25 08:26:32;;;;;;;20.67;7.22;;;23.30;99.20;;;;;;5133971;27;20027;-76
2021/07/25 08:28:58;;;;;;;21.65;6.72;;;23.40;99.20;;;;;;5115104;27;20171;-77
2021/07/25 08:31:24;;;;;;;20.35;6.63;;;23.40;99.30;;;;;;5133906;27;20094;-76
2021/07/25 08:33:49;;;;;;;15.60;6.07;;;23.40;99.40;;;;;;5133731;27;20454;-75
2021/07/25 08:36:15;;;;;;;13.38;5.43;;;23.40;99.40;;;;;;5133963;27;20031;-77
2021/07/25 08:38:41;;;;;;;19.02;6.38;;;23.40;99.30;;;;;;5128324;27;20032;-77
2021/07/25 08:41:15;;;;;;;12.98;5.70;;;23.40;99.30;;;;;;5112842;28;20369;-77
2021/07/25 08:43:43;;;;;;;18.50;4.75;;;23.40;99.40;;;;;;5113031;28;20047;-77
2021/07/25 08:46:19;;;;;;;12.52;4.80;;;23.40;99.30;;;;;;5112614;28;20110;-77
2021/07/25 08:48:51;;;;;;;13.88;4.65;;;23.50;99.20;;;;;;5112888;28;20016;-77
2021/07/25 08:51:23;;;;;;;12.65;4.75;;;23.50;99.20;;;;;;5112957;28;20027;-77
2021/07/25 08:54:02;;;;;;;15.10;5.35;;;23.50;99.20;;;;;;5112923;28;20094;-77
2021/07/25 08:56:30;;;;;;;13.98;4.80;;;23.50;99.30;;;;;;5094040;28;20020;-75
2021/07/25 08:59:02;;;;;;;14.95;4.72;;;23.50;99.20;;;;;;5112220;28;20019;-76
2021/07/25 09:01:38;;;;;;;12.13;3.63;;;23.50;99.20;;;;;;5112426;28;20028;-76
2021/07/25 09:04:05;;;;;;;12.93;4.72;;;23.60;99.20;;;;;;5093891;28;20027;-76
2021/07/25 09:06:40;;;;;;;8.48;3.65;;;23.50;99.10;;;;;;5112357;28;20052;-75
2021/07/25 09:09:05;;;;;;;6.90;3.03;;;23.50;99.20;;;;;;5092919;28;20504;-78
2021/07/25 09:11:31;;;;;;;10.18;3.90;;;23.60;99.20;;;;;;5112542;28;20502;-77
2021/07/25 09:13:58;;;;;;;11.10;3.47;;;23.60;99.20;;;;;;5121572;27;20035;-76
2021/07/25 09:16:29;;;;;;;10.30;3.60;;;23.60;99.20;;;;;;5132940;27;20022;-77
2021/07/25 09:18:56;;;;;;;13.50;3.30;;;23.60;99.20;;;;;;5132208;27;20039;-76
2021/07/25 09:21:51;;;;;;;7.25;2.92;;;23.60;99.20;;;;;;5115925;27;20491;-76
2021/07/25 09:24:28;;;;;;;8.77;3.50;;;23.60;99.40;;;;;;5112358;28;20030;-77
2021/07/25 09:26:59;;;;;;;8.45;2.70;;;23.60;99.40;;;;;;5111735;28;20027;-79
2021/07/25 09:29:36;;;;;;;10.88;3.33;;;23.60;99.30;;;;;;5111851;28;20024;-78
2021/07/25 09:32:15;;;;;;;5.63;2.90;;;23.60;99.20;;;;;;5110767;28;20098;-79
2021/07/25 09:34:45;;;;;;;5.68;2.63;;;23.60;99.10;;;;;;5112140;28;20118;-78
2021/07/25 09:37:12;;;;;;;8.32;3.10;;;23.60;99.20;;;;;;5111403;28;20020;-78
2021/07/25 09:39:47;;;;;;;8.38;3.13;;;23.60;99.20;;;;;;5111966;28;20034;-79
2021/07/25 09:42:14;;;;;;;6.85;2.53;;;23.60;99.10;;;;;;5120614;27;20395;-81
2021/07/25 09:44:47;;;;;;;9.07;3.28;;;23.60;99.10;;;;;;5119729;27;20039;-76
2021/07/25 09:47:40;;;;;;;5.43;2.63;;;23.60;99.10;;;;;;5110303;28;20030;-76
2021/07/25 09:50:07;;;;;;;10.80;3.03;;;23.60;99.10;;;;;;5112553;28;20024;-75
2021/07/25 09:52:35;;;;;;;9.57;2.88;;;23.70;99.10;;;;;;5110498;28;20036;-75
2021/07/25 09:55:06;;;;;;;8.02;2.55;;;23.70;99.10;;;;;;5111170;28;20042;-76
2021/07/25 09:57:35;;;;;;;7.72;3.17;;;23.70;99.00;;;;;;5093332;28;20030;-77
2021/07/25 10:00:09;;;;;;;8.27;2.58;;;23.80;99.10;;;;;;5092342;28;20042;-77
2021/07/25 10:02:39;;;;;;;10.07;2.50;;;23.80;99.00;;;;;;5111637;28;20024;-74
2021/07/25 10:05:06;;;;;;;4.50;2.28;;;23.80;98.90;;;;;;5109264;28;20449;-76
2021/07/25 10:07:32;;;;;;;8.45;2.92;;;23.80;99.00;;;;;;5111130;28;20110;-76
2021/07/25 10:10:00;;;;;;;7.13;2.25;;;23.80;99.00;;;;;;5111427;28;20577;-75
2021/07/25 10:12:32;;;;;;;9.43;2.88;;;23.90;99.30;;;;;;5110646;28;20503;-74
2021/07/25 10:15:01;;;;;;;6.97;3.20;;;23.90;99.10;;;;;;5110583;28;20031;-74
2021/07/25 10:17:31;;;;;;;11.57;3.15;;;23.90;99.10;;;;;;5110843;28;20468;-75
2021/07/25 10:19:58;;;;;;;7.75;3.28;;;23.90;99.10;;;;;;5111295;28;20107;-74
2021/07/25 10:22:31;;;;;;;6.88;2.90;;;23.90;99.20;;;;;;5115212;28;20027;-75
2021/07/25 10:24:59;;;;;;;7.50;2.90;;;24.00;99.20;;;;;;5114170;28;20053;-74
2021/07/25 10:27:25;;;;;;;8.35;2.80;;;24.00;99.20;;;;;;5115594;28;20030;-75
2021/07/25 10:29:53;;;;;;;7.57;3.00;;;24.10;99.30;;;;;;5115538;28;20020;-75
2021/07/25 10:32:20;;;;;;;5.78;2.88;;;24.10;99.20;;;;;;5113596;28;20020;-75
2021/07/25 10:34:47;;;;;;;7.72;2.92;;;24.10;99.10;;;;;;5115584;28;20039;-75
2021/07/25 10:37:13;;;;;;;5.80;3.17;;;24.10;99.20;;;;;;5115326;28;20016;-75
2021/07/25 10:39:45;;;;;;;8.35;2.78;;;24.10;99.20;;;;;;5096169;28;20470;-75
2021/07/25 10:42:18;;;;;;;7.22;2.22;;;24.10;99.20;;;;;;5115247;28;20373;-75
2021/07/25 10:44:44;;;;;;;5.47;2.55;;;24.10;99.20;;;;;;5115411;28;20409;-75
2021/07/25 10:47:30;;;;;;;7.90;2.70;;;24.20;99.30;;;;;;5114958;28;20218;-76
2021/07/25 10:50:04;;;;;;;11.38;3.35;;;24.20;99.20;;;;;;5094577;28;20438;-75
2021/07/25 10:52:59;;;;;;;8.13;2.50;;;24.20;99.10;;;;;;5094517;28;20036;-74
2021/07/25 10:55:38;;;;;;;7.88;3.10;;;24.30;99.00;;;;;;5094952;28;20365;-73
2021/07/25 10:58:05;;;;;;;10.63;2.83;;;24.30;98.80;;;;;;5094607;28;20050;-74
2021/07/25 11:00:49;;;;;;;7.47;2.65;;;24.30;98.80;;;;;;5094691;28;20035;-74
2021/07/25 11:03:41;;;;;;;9.15;2.53;;;24.30;98.70;;;;;;5094960;28;20102;-74
2021/07/25 11:06:13;;;;;;;8.60;2.63;;;24.30;98.60;;;;;;5090451;28;20158;-74
2021/07/25 11:08:46;;;;;;;4.88;2.55;;;24.30;98.60;;;;;;5105164;28;20443;-78
2021/07/25 11:11:34;;;;;;;7.55;2.47;;;24.30;98.50;;;;;;5114597;28;20030;-75
2021/07/25 11:14:02;;;;;;;5.35;2.25;;;24.30;98.60;;;;;;5096155;28;20392;-75
2021/07/25 11:16:28;;;;;;;6.80;2.45;;;24.40;98.50;;;;;;5096440;28;20502;-74
2021/07/25 11:18:54;;;;;;;3.00;2.10;;;24.40;98.40;;;;;;5114293;28;20102;-75
2021/07/25 11:21:50;;;;;;;6.55;2.45;;;24.40;98.30;;;;;;5114439;28;20020;-75
2021/07/25 11:24:19;;;;;;;9.30;2.33;;;24.40;98.30;;;;;;5114492;28;20023;-76
2021/07/25 11:27:03;;;;;;;6.93;2.47;;;24.40;98.20;;;;;;5114577;28;20042;-76
2021/07/25 11:29:32;;;;;;;3.08;2.35;;;24.50;98.20;;;;;;5096270;28;20115;-75
2021/07/25 11:31:59;;;;;;;12.80;2.97;;;24.50;98.20;;;;;;5113352;28;20028;-74
2021/07/25 11:34:39;;;;;;;3.97;2.03;;;24.50;98.10;;;;;;5114189;28;20024;-74
2021/07/25 11:37:08;;;;;;;3.47;1.95;;;24.50;98.00;;;;;;5114270;28;20031;-76
2021/07/25 11:39:34;;;;;;;5.47;2.08;;;24.50;98.00;;;;;;5114422;28;20030;-75
2021/07/25 11:42:07;;;;;;;6.30;2.22;;;24.50;98.10;;;;;;5113104;28;20484;-75
2021/07/25 11:44:33;;;;;;;6.47;2.08;;;24.50;98.10;;;;;;5112522;28;20047;-75
2021/07/25 11:47:01;;;;;;;5.80;2.35;;;24.50;98.00;;;;;;5094703;28;20055;-75
2021/07/25 11:49:35;;;;;;;5.30;2.10;;;24.50;98.00;;;;;;5114163;28;20028;-76
2021/07/25 11:52:09;;;;;;;3.85;2.00;;;24.50;97.90;;;;;;5113736;28;20119;-75
2021/07/25 11:54:37;;;;;;;4.45;2.25;;;24.60;97.80;;;;;;5112614;28;20036;-75
2021/07/25 11:57:24;;;;;;;4.15;2.05;;;24.60;98.10;;;;;;5111955;28;20028;-75
2021/07/25 11:59:51;;;;;;;5.85;2.67;;;24.60;97.70;;;;;;5111614;28;20035;-75
2021/07/25 12:02:29;;;;;;;7.28;2.47;;;24.60;97.70;;;;;;5114002;28;20027;-75
2021/07/25 12:04:55;;;;;;;7.22;2.08;;;24.60;97.70;;;;;;5113314;28;20509;-76
2021/07/25 12:07:21;;;;;;;4.32;2.00;;;24.60;97.70;;;;;;5113421;28;20442;-74
2021/07/25 12:09:48;;;;;;;4.68;2.58;;;24.60;97.80;;;;;;5113929;28;20028;-74
2021/07/25 12:12:21;;;;;;;4.38;2.83;;;24.60;97.80;;;;;;5113279;28;20031;-75
2021/07/25 12:14:49;;;;;;;3.72;2.10;;;24.60;97.70;;;;;;5114031;28;20036;-75
2021/07/25 12:18:03;;;;;;;10.15;2.40;;;24.60;97.50;;;;;;5113630;28;20076;-75
2021/07/25 12:20:32;;;;;;;4.40;2.72;;;24.60;97.20;;;;;;5113427;28;20185;-74
2021/07/25 12:23:08;;;;;;;5.20;2.42;;;24.60;96.80;;;;;;5113330;28;20031;-75
2021/07/25 12:25:38;;;;;;;;;;;24.60;96.60;;;;;;5113879;28;20054;-74
2021/07/25 12:28:14;;;;;;;4.90;2.60;;;24.60;96.50;;;;;;5113156;28;19911;-75
2021/07/25 12:30:41;;;;;;;4.22;2.25;;;24.60;96.30;;;;;;5113277;28;20035;-75
2021/07/25 12:33:07;;;;;;;7.55;3.03;;;24.60;96.50;;;;;;5112622;27;20027;-76
2021/07/25 12:35:33;;;;;;;5.28;2.70;;;24.60;96.50;;;;;;5102099;28;20030;-75
2021/07/25 12:38:00;;;;;;;4.57;3.13;;;24.60;96.50;;;;;;5112824;28;20020;-75
2021/07/25 12:40:26;;;;;;;6.38;2.60;;;24.60;96.40;;;;;;5112727;28;20024;-75
2021/07/25 12:43:02;;;;;;;3.65;2.67;;;24.60;96.40;;;;;;5112820;28;20057;-76
2021/07/25 12:45:33;;;;;;;;;;;24.60;96.40;;;;;;5112976;28;20059;-75
2021/07/25 12:48:12;;;;;;;4.25;2.33;;;24.60;96.50;;;;;;5112632;28;19911;-75
2021/07/25 12:50:57;;;;;;;6.13;2.50;;;24.60;96.40;;;;;;5119046;27;20039;-76
2021/07/25 12:53:38;;;;;;;4.13;2.22;;;24.60;96.40;;;;;;5124013;27;20084;-74
2021/07/25 12:56:07;;;;;;;6.43;2.40;;;24.50;96.50;;;;;;5132296;27;20028;-76